createdAt,value
2018-07-24T00:01:21.133Z,76.43
2018-07-24T00:03:51.276Z,76.54
2018-07-24T00:06:21.399Z,76.43
2018-07-24T00:08:51.799Z,76.78
2018-07-24T00:11:21.999Z,76.36
2018-07-24T00:13:52.190Z,76.10
2018-07-24T00:16:22.424Z,76.28
2018-07-24T00:18:52.651Z,75.43
2018-07-24T00:21:22.823Z,75.52
2018-07-24T00:23:53.045Z,75.85
2018-07-24T00:26:23.236Z,77.13
2018-07-24T00:28:53.409Z,77.27
2018-07-24T00:31:23.700Z,77.73
2018-07-24T00:33:53.801Z,77.60
2018-07-24T00:36:23.929Z,77.84
2018-07-24T00:38:53.987Z,78.18
2018-07-24T00:41:24.144Z,78.84
2018-07-24T00:43:54.419Z,78.74
2018-07-24T00:46:24.691Z,79.24
2018-07-24T00:48:54.438Z,79.56
2018-07-24T00:51:24.605Z,79.68
2018-07-24T00:53:54.937Z,79.51
2018-07-24T00:56:25.281Z,79.76
2018-07-24T00:58:55.449Z,79.42
2018-07-24T01:01:25.594Z,79.45
2018-07-24T01:03:55.732Z,79.63
2018-07-24T01:06:25.430Z,79.68
2018-07-24T01:08:55.576Z,79.36
2018-07-24T01:11:25.779Z,79.48
2018-07-24T01:13:55.841Z,79.18
2018-07-24T01:16:26.009Z,79.94
2018-07-24T01:18:56.090Z,79.78
2018-07-24T01:21:26.623Z,80.06
2018-07-24T01:23:56.855Z,80.42
2018-07-24T01:26:26.969Z,80.76
2018-07-24T01:28:57.120Z,80.93
2018-07-24T01:31:27.338Z,81.36
2018-07-24T01:33:57.451Z,81.32
2018-07-24T01:36:27.705Z,81.77
2018-07-24T01:38:57.846Z,81.78
2018-07-24T01:41:27.998Z,81.99
2018-07-24T01:43:58.138Z,81.45
2018-07-24T01:46:28.348Z,81.53
2018-07-24T01:48:58.501Z,81.90
2018-07-24T01:51:28.702Z,82.12
2018-07-24T01:53:58.858Z,82.07
2018-07-24T01:56:29.018Z,82.27
2018-07-24T01:58:59.169Z,82.36
2018-07-24T02:01:29.424Z,82.05
2018-07-24T02:03:59.589Z,82.87
2018-07-24T02:06:29.721Z,82.47
2018-07-24T02:08:59.859Z,82.79
2018-07-24T02:11:30.075Z,82.54
2018-07-24T02:14:00.120Z,83.00
2018-07-24T02:16:30.321Z,83.63
2018-07-24T02:19:00.431Z,83.23
2018-07-24T02:21:30.687Z,83.65
2018-07-24T02:24:00.971Z,83.82
2018-07-24T02:26:31.153Z,84.03
2018-07-24T02:29:01.285Z,83.96
2018-07-24T02:31:31.415Z,84.19
2018-07-24T02:34:01.519Z,84.09
2018-07-24T02:36:31.679Z,83.97
2018-07-24T02:39:01.781Z,84.11
2018-07-24T02:41:31.990Z,84.31
2018-07-24T02:44:02.111Z,84.40
2018-07-24T02:46:32.450Z,84.83
2018-07-24T02:49:02.563Z,85.20
2018-07-24T02:51:32.922Z,85.29
2018-07-24T02:54:03.079Z,85.54
2018-07-24T02:56:33.271Z,85.81
2018-07-24T02:59:03.411Z,86.11
2018-07-24T03:01:33.555Z,86.03
2018-07-24T03:04:03.744Z,86.17
2018-07-24T03:06:33.917Z,86.08
2018-07-24T03:09:04.285Z,86.36
2018-07-24T03:11:34.437Z,85.85
2018-07-24T03:14:04.592Z,85.96
2018-07-24T03:16:34.773Z,85.50
2018-07-24T03:19:04.913Z,85.59
2018-07-24T03:21:35.114Z,85.25
2018-07-24T03:24:05.383Z,85.67
2018-07-24T03:26:35.482Z,85.86
2018-07-24T03:29:05.646Z,85.71
2018-07-24T03:31:35.885Z,86.36
2018-07-24T03:34:06.067Z,86.39
2018-07-24T03:36:36.229Z,86.19
2018-07-24T03:39:11.050Z,86.43
2018-07-24T03:41:41.411Z,86.76
2018-07-24T03:44:11.885Z,86.63
2018-07-24T03:46:42.125Z,87.01
2018-07-24T03:49:12.201Z,86.69
2018-07-24T03:51:42.282Z,86.84
2018-07-24T03:54:12.467Z,86.81
2018-07-24T03:56:42.634Z,86.79
2018-07-24T03:59:12.765Z,86.53
2018-07-24T04:01:42.903Z,86.79
2018-07-24T04:04:13.002Z,86.77
2018-07-24T04:06:43.215Z,86.72
2018-07-24T04:09:13.340Z,86.07
2018-07-24T04:11:43.435Z,85.11
2018-07-24T04:14:13.638Z,85.18
2018-07-24T04:16:43.798Z,84.95
2018-07-24T04:19:14.048Z,85.07
2018-07-24T04:21:44.175Z,85.35
2018-07-24T04:24:14.323Z,85.38
2018-07-24T04:26:44.476Z,85.03
2018-07-24T04:29:14.601Z,85.04
2018-07-24T04:31:44.773Z,84.81
2018-07-24T04:34:14.900Z,84.88
2018-07-24T04:36:45.041Z,84.34
2018-07-24T04:39:15.262Z,84.08
2018-07-24T04:41:45.410Z,83.59
2018-07-24T04:44:15.627Z,83.01
2018-07-24T04:46:45.919Z,82.11
2018-07-24T04:49:16.030Z,81.49
2018-07-24T04:51:46.187Z,81.81
2018-07-24T04:54:16.278Z,81.17
2018-07-24T04:56:46.425Z,79.14
2018-07-24T04:59:16.581Z,78.95
2018-07-24T05:01:46.324Z,78.87
2018-07-24T05:04:16.451Z,77.65
2018-07-24T05:06:46.608Z,77.30
2018-07-24T05:09:16.852Z,75.95
2018-07-24T05:11:47.031Z,76.19
2018-07-24T05:14:17.129Z,75.97
2018-07-24T05:16:47.342Z,75.47
2018-07-24T05:19:17.407Z,73.75
2018-07-24T05:21:47.524Z,71.76
2018-07-24T05:24:17.707Z,71.55
2018-07-24T05:26:47.448Z,70.87
2018-07-24T05:29:17.579Z,70.26
2018-07-24T05:31:47.746Z,70.52
2018-07-24T05:34:17.913Z,70.58
2018-07-24T05:36:48.084Z,69.43
2018-07-24T05:39:18.253Z,68.98
2018-07-24T05:41:48.416Z,68.85
2018-07-24T05:44:18.124Z,68.31
2018-07-24T05:46:48.258Z,60.65
2018-07-24T05:49:18.450Z,54.76
2018-07-24T05:51:48.635Z,51.76
2018-07-24T05:54:18.819Z,49.02
2018-07-24T05:56:49.041Z,44.54
2018-07-24T05:59:19.189Z,42.22
2018-07-24T06:01:49.401Z,41.44
2018-07-24T06:04:19.663Z,39.77
2018-07-24T06:06:49.872Z,39.31
2018-07-24T06:09:19.987Z,36.87
2018-07-24T06:11:50.163Z,35.66
2018-07-24T06:14:20.332Z,33.44
2018-07-24T06:16:50.550Z,33.90
2018-07-24T06:19:20.632Z,33.60
2018-07-24T06:21:50.775Z,34.74
2018-07-24T06:24:20.889Z,34.70
2018-07-24T06:26:51.278Z,33.06
2018-07-24T06:29:21.798Z,31.77
2018-07-24T06:31:51.865Z,32.16
2018-07-24T06:34:21.954Z,30.97
2018-07-24T06:36:52.159Z,32.04
2018-07-24T06:39:22.274Z,32.15
2018-07-24T06:41:52.486Z,31.03
2018-07-24T06:44:22.681Z,31.75
2018-07-24T06:46:52.827Z,31.50
2018-07-24T06:49:22.909Z,30.65
2018-07-24T06:51:53.037Z,29.48
2018-07-24T06:54:23.187Z,28.58
2018-07-24T06:56:53.369Z,30.01
2018-07-24T06:59:23.805Z,28.20
2018-07-24T07:01:53.945Z,27.79
2018-07-24T07:04:24.071Z,27.73
2018-07-24T07:06:54.226Z,27.40
2018-07-24T07:09:25.670Z,28.03
2018-07-24T07:11:55.924Z,27.26
2018-07-24T07:14:26.118Z,26.75
2018-07-24T07:16:56.284Z,26.65
2018-07-24T07:19:26.394Z,26.78
2018-07-24T07:21:56.544Z,26.67
2018-07-24T07:24:26.783Z,27.47
2018-07-24T07:26:56.916Z,25.57
2018-07-24T07:29:27.004Z,24.48
2018-07-24T07:31:57.137Z,24.46
2018-07-24T07:34:27.251Z,25.79
2018-07-24T07:36:57.428Z,25.16
2018-07-24T07:39:27.564Z,24.78
2018-07-24T07:41:57.733Z,23.13
2018-07-24T07:44:27.835Z,25.08
2018-07-24T07:46:58.019Z,24.22
2018-07-24T07:49:28.201Z,24.61
2018-07-24T07:51:58.312Z,23.82
2018-07-24T07:54:28.415Z,23.90
2018-07-24T07:56:58.599Z,23.28
2018-07-24T07:59:28.711Z,22.83
2018-07-24T08:01:59.003Z,22.65
2018-07-24T08:04:29.120Z,21.86
2018-07-24T08:07:00.396Z,23.15
2018-07-24T08:09:30.541Z,23.49
2018-07-24T08:12:00.676Z,24.05
2018-07-24T08:14:30.881Z,24.21
2018-07-24T08:17:01.079Z,22.08
2018-07-24T08:19:31.305Z,22.83
2018-07-24T08:22:01.518Z,24.84
2018-07-24T08:24:31.692Z,23.68
2018-07-24T08:27:01.891Z,23.13
2018-07-24T08:29:32.156Z,22.79
2018-07-24T08:32:02.491Z,23.69
2018-07-24T08:34:32.610Z,23.08
2018-07-24T08:37:04.466Z,22.76
2018-07-24T08:39:34.836Z,22.47
2018-07-24T08:42:05.022Z,22.08
2018-07-24T08:44:35.190Z,23.08
2018-07-24T08:47:05.550Z,24.19
2018-07-24T08:49:35.688Z,23.64
2018-07-24T08:52:06.044Z,22.84
2018-07-24T08:54:36.453Z,23.98
2018-07-24T08:57:06.524Z,23.59
2018-07-24T08:59:36.614Z,22.96
2018-07-24T09:02:06.752Z,24.06
2018-07-24T09:04:36.869Z,24.02
2018-07-24T09:07:07.043Z,24.33
2018-07-24T09:09:38.682Z,24.72
2018-07-24T09:12:08.815Z,23.04
2018-07-24T09:14:38.937Z,23.00
2018-07-24T09:17:09.096Z,23.29
2018-07-24T09:19:39.164Z,23.04
2018-07-24T09:22:09.604Z,21.69
2018-07-24T09:24:39.310Z,22.54
2018-07-24T09:27:09.582Z,22.44
2018-07-24T09:29:39.846Z,22.98
2018-07-24T09:32:10.535Z,22.27
2018-07-24T09:34:40.821Z,23.31
2018-07-24T09:37:11.090Z,23.47
2018-07-24T09:39:41.221Z,23.78
2018-07-24T09:42:11.374Z,24.13
2018-07-24T09:44:41.674Z,24.58
2018-07-24T09:47:11.877Z,22.84
2018-07-24T09:49:42.039Z,21.46
2018-07-24T09:52:12.214Z,22.83
2018-07-24T09:54:42.556Z,22.12
2018-07-24T09:57:12.279Z,23.62
2018-07-24T09:59:42.391Z,23.45
2018-07-24T10:02:13.007Z,24.24
2018-07-24T10:04:43.150Z,26.42
2018-07-24T10:07:13.341Z,26.42
2018-07-24T10:09:43.598Z,26.63
2018-07-24T10:12:13.807Z,26.62
2018-07-24T10:14:43.924Z,28.26
2018-07-24T10:17:14.253Z,27.73
2018-07-24T10:19:44.341Z,27.35
2018-07-24T10:22:14.524Z,26.96
2018-07-24T10:24:44.808Z,26.32
2018-07-24T10:27:14.982Z,27.11
2018-07-24T10:29:45.071Z,27.39
2018-07-24T10:32:15.289Z,27.36
2018-07-24T10:34:45.498Z,27.91
2018-07-24T10:37:16.180Z,27.85
2018-07-24T10:39:46.464Z,27.86
2018-07-24T10:42:16.967Z,28.11
2018-07-24T10:44:47.376Z,28.10
2018-07-24T10:47:17.785Z,27.59
2018-07-24T10:49:48.174Z,26.97
2018-07-24T10:52:19.215Z,26.95
2018-07-24T10:54:49.877Z,28.58
2018-07-24T10:57:20.772Z,27.17
2018-07-24T10:59:50.993Z,27.23
2018-07-24T11:02:22.149Z,28.75
2018-07-24T11:04:52.253Z,28.41
2018-07-24T11:07:22.940Z,28.16
2018-07-24T11:09:53.162Z,27.84
2018-07-24T11:12:23.585Z,27.90
2018-07-24T11:14:53.741Z,27.63
2018-07-24T11:17:23.944Z,26.98
2018-07-24T11:19:54.994Z,26.92
2018-07-24T11:22:26.248Z,27.59
2018-07-24T11:24:57.379Z,27.97
2018-07-24T11:27:29.846Z,27.67
2018-07-24T11:30:00.012Z,26.17
2018-07-24T11:32:30.839Z,26.77
2018-07-24T11:35:00.963Z,26.51
2018-07-24T11:37:31.132Z,26.84
2018-07-24T11:40:01.397Z,26.83
2018-07-24T11:42:31.553Z,26.69
2018-07-24T11:45:01.705Z,26.99
2018-07-24T11:47:31.888Z,28.24
2018-07-24T11:50:02.093Z,28.24
2018-07-24T11:52:32.445Z,27.59
2018-07-24T11:55:02.535Z,28.06
2018-07-24T11:57:34.878Z,27.12
2018-07-24T12:00:05.858Z,27.90
2018-07-24T12:02:36.140Z,26.05
2018-07-24T12:05:06.593Z,26.19
2018-07-24T12:07:36.926Z,26.13
2018-07-24T12:10:07.704Z,25.56
2018-07-24T12:12:37.994Z,26.17
2018-07-24T12:15:08.573Z,26.70
2018-07-24T12:17:38.857Z,26.38
2018-07-24T12:20:09.251Z,26.24
2018-07-24T12:22:39.657Z,26.20
2018-07-24T12:25:09.902Z,26.91
2018-07-24T12:27:40.100Z,25.32
2018-07-24T12:30:10.355Z,25.64
2018-07-24T12:32:41.570Z,26.44
2018-07-24T12:35:13.526Z,25.52
2018-07-24T12:37:44.058Z,26.86
2018-07-24T12:40:14.311Z,27.10
2018-07-24T12:42:44.514Z,26.58
2018-07-24T12:45:14.696Z,26.78
2018-07-24T12:47:44.905Z,26.39
2018-07-24T12:50:15.022Z,27.83
2018-07-24T12:52:45.737Z,29.15
2018-07-24T12:55:15.994Z,27.67
2018-07-24T12:57:46.162Z,25.98
2018-07-24T13:00:16.499Z,27.59
2018-07-24T13:02:46.737Z,30.68
2018-07-24T13:05:16.889Z,28.50
2018-07-24T13:07:47.242Z,28.16
2018-07-24T13:10:17.531Z,26.97
2018-07-24T13:12:47.680Z,27.49
2018-07-24T13:15:17.797Z,25.30
2018-07-24T13:17:47.946Z,24.19
2018-07-24T13:20:18.222Z,25.34
2018-07-24T13:22:48.428Z,24.23
2018-07-24T13:25:18.407Z,24.34
2018-07-24T13:27:48.822Z,24.47
2018-07-24T13:30:19.044Z,24.21
2018-07-24T13:32:49.253Z,24.11
2018-07-24T13:35:19.424Z,24.71
2018-07-24T13:37:49.560Z,24.79
2018-07-24T13:40:19.782Z,24.83
2018-07-24T13:42:49.989Z,24.11
2018-07-24T13:45:20.090Z,25.34
2018-07-24T13:47:50.391Z,24.34
2018-07-24T13:50:20.531Z,24.22
2018-07-24T13:52:50.737Z,23.03
2018-07-24T13:55:21.004Z,24.69
2018-07-24T13:57:51.252Z,25.08
2018-07-24T14:00:21.457Z,24.56
2018-07-24T14:02:51.657Z,24.57
2018-07-24T14:05:21.743Z,24.41
2018-07-24T14:07:52.011Z,24.15
2018-07-24T14:10:22.124Z,23.47
2018-07-24T14:12:52.275Z,23.53
2018-07-24T14:15:22.384Z,23.56
2018-07-24T14:17:53.922Z,24.84
2018-07-24T14:20:24.130Z,23.36
2018-07-24T14:22:54.512Z,23.41
2018-07-24T14:25:24.585Z,24.44
2018-07-24T14:27:55.015Z,23.35
2018-07-24T14:30:25.138Z,24.19
2018-07-24T14:32:55.281Z,23.66
2018-07-24T14:35:25.973Z,22.41
2018-07-24T14:37:56.411Z,24.08
2018-07-24T14:40:26.773Z,23.88
2018-07-24T14:42:57.863Z,23.41
2018-07-24T14:45:28.140Z,23.33
2018-07-24T14:47:57.832Z,22.61
2018-07-24T14:50:27.939Z,22.20
2018-07-24T14:52:58.082Z,21.43
2018-07-24T14:55:28.356Z,22.76
2018-07-24T14:57:58.596Z,23.53
2018-07-24T15:00:28.766Z,22.66
2018-07-24T15:02:58.936Z,21.19
2018-07-24T15:05:29.160Z,22.31
2018-07-24T15:07:59.321Z,21.60
2018-07-24T15:10:29.661Z,19.83
2018-07-24T15:12:59.828Z,21.96
2018-07-24T15:15:29.946Z,19.99
2018-07-24T15:18:00.058Z,18.92
2018-07-24T15:20:30.248Z,19.09
2018-07-24T15:23:00.419Z,20.28
2018-07-24T15:25:30.557Z,21.51
2018-07-24T15:28:01.302Z,20.91
2018-07-24T15:30:31.402Z,22.29
2018-07-24T15:33:01.746Z,20.06
2018-07-24T15:35:31.850Z,22.47
2018-07-24T15:38:06.307Z,24.38
2018-07-24T15:40:36.487Z,25.67
2018-07-24T15:43:06.735Z,24.27
2018-07-24T15:45:36.967Z,23.50
2018-07-24T15:48:07.179Z,22.63
2018-07-24T15:50:37.383Z,22.86
2018-07-24T15:53:07.880Z,24.51
2018-07-24T15:55:38.042Z,25.78
2018-07-24T15:58:08.448Z,26.03
2018-07-24T16:00:38.610Z,25.57
2018-07-24T16:03:08.801Z,26.02
2018-07-24T16:05:38.978Z,28.47
2018-07-24T16:08:09.123Z,28.77
2018-07-24T16:10:39.346Z,27.67
2018-07-24T16:13:09.665Z,30.23
2018-07-24T16:15:39.805Z,28.02
2018-07-24T16:18:10.529Z,27.94
2018-07-24T16:20:40.728Z,26.85
2018-07-24T16:23:11.140Z,24.82
2018-07-24T16:25:41.310Z,23.01
2018-07-24T16:28:11.618Z,23.10
2018-07-24T16:30:41.759Z,26.04
2018-07-24T16:33:12.132Z,27.79
2018-07-24T16:35:42.477Z,25.84
2018-07-24T16:38:12.860Z,23.96
2018-07-24T16:40:42.997Z,24.79
2018-07-24T16:43:13.666Z,24.70
2018-07-24T16:45:44.702Z,24.81
2018-07-24T16:48:15.229Z,26.68
2018-07-24T16:50:45.335Z,25.40
2018-07-24T16:53:15.441Z,25.51
2018-07-24T16:55:45.613Z,24.16
2018-07-24T16:58:15.813Z,23.21
2018-07-24T17:00:46.010Z,23.04
2018-07-24T17:03:16.168Z,24.67
2018-07-24T17:05:46.318Z,25.58
2018-07-24T17:08:16.521Z,26.17
2018-07-24T17:10:46.620Z,27.15
2018-07-24T17:13:16.766Z,27.13
2018-07-24T17:15:46.930Z,28.01
2018-07-24T17:18:17.332Z,27.51
2018-07-24T17:20:47.704Z,27.21
2018-07-24T17:23:19.090Z,27.18
2018-07-24T17:25:49.854Z,28.86
2018-07-24T17:28:20.480Z,28.63
2018-07-24T17:30:50.736Z,27.61
2018-07-24T17:33:20.952Z,27.65
2018-07-24T17:35:51.115Z,27.61
2018-07-24T17:38:21.346Z,29.67
2018-07-24T17:40:51.506Z,29.05
2018-07-24T17:43:21.748Z,28.89
2018-07-24T17:45:52.031Z,28.97
2018-07-24T17:48:22.137Z,28.55
2018-07-24T17:50:52.305Z,29.39
2018-07-24T17:53:22.444Z,29.14
2018-07-24T17:55:52.512Z,27.93
2018-07-24T17:58:22.704Z,27.79
2018-07-24T18:00:52.892Z,29.27
2018-07-24T18:03:22.989Z,29.23
2018-07-24T18:05:53.064Z,28.68
2018-07-24T18:08:23.261Z,29.17
2018-07-24T18:10:53.396Z,30.28
2018-07-24T18:13:23.620Z,29.75
2018-07-24T18:15:53.862Z,29.49
2018-07-24T18:18:23.984Z,29.04
2018-07-24T18:20:54.163Z,29.71
2018-07-24T18:23:24.472Z,29.24
2018-07-24T18:25:54.603Z,29.99
2018-07-24T18:28:24.851Z,30.71
2018-07-24T18:30:55.070Z,30.89
2018-07-24T18:33:25.266Z,31.47
2018-07-24T18:35:55.441Z,31.14
2018-07-24T18:38:25.666Z,28.59
2018-07-24T18:40:56.527Z,29.57
2018-07-24T18:43:26.685Z,31.22
2018-07-24T18:45:56.937Z,31.28
2018-07-24T18:48:27.071Z,29.71
2018-07-24T18:50:57.368Z,30.28
2018-07-24T18:53:27.716Z,29.85
2018-07-24T18:55:57.801Z,29.94
2018-07-24T18:58:27.941Z,29.72
2018-07-24T19:00:58.657Z,31.84
2018-07-24T19:03:29.313Z,30.52
2018-07-24T19:05:59.422Z,31.43
2018-07-24T19:08:29.865Z,31.52
2018-07-24T19:11:00.085Z,31.92
2018-07-24T19:13:30.717Z,33.25
2018-07-24T19:16:00.872Z,33.17
2018-07-24T19:18:31.524Z,33.98
2018-07-24T19:21:02.011Z,35.07
2018-07-24T19:23:32.559Z,35.49
2018-07-24T19:26:03.626Z,35.17
2018-07-24T19:28:34.032Z,36.08
2018-07-24T19:31:04.210Z,36.50
2018-07-24T19:33:34.584Z,37.21
2018-07-24T19:36:04.754Z,38.05
2018-07-24T19:38:35.757Z,39.15
2018-07-24T19:41:06.594Z,38.41
2018-07-24T19:43:37.794Z,39.89
2018-07-24T19:46:08.519Z,40.66
2018-07-24T19:48:38.809Z,41.99
2018-07-24T19:51:09.160Z,42.22
2018-07-24T19:53:39.371Z,41.03
2018-07-24T19:56:10.050Z,40.84
2018-07-24T19:58:41.404Z,41.23
2018-07-24T20:01:12.049Z,41.09
2018-07-24T20:03:42.445Z,40.44
2018-07-24T20:06:16.466Z,40.49
2018-07-24T20:08:47.445Z,40.61
2018-07-24T20:11:18.181Z,40.31
2018-07-24T20:13:48.410Z,40.19
2018-07-24T20:16:18.952Z,40.18
2018-07-24T20:18:49.116Z,40.12
2018-07-24T20:21:20.832Z,40.34
2018-07-24T20:23:51.043Z,40.10
2018-07-24T20:26:21.267Z,41.31
2018-07-24T20:28:51.069Z,40.09
2018-07-24T20:31:21.157Z,39.88
2018-07-24T20:33:51.742Z,41.11
2018-07-24T20:36:22.688Z,40.68
2018-07-24T20:38:52.846Z,40.37
2018-07-24T20:41:23.667Z,39.89
2018-07-24T20:43:53.829Z,39.86
2018-07-24T20:46:24.128Z,39.03
2018-07-24T20:48:54.294Z,38.97
2018-07-24T20:51:24.424Z,38.89
2018-07-24T20:53:54.557Z,39.08
2018-07-24T20:56:24.925Z,38.06
2018-07-24T20:58:55.460Z,38.00
2018-07-24T21:01:25.139Z,38.25
2018-07-24T21:03:55.272Z,38.50
2018-07-24T21:06:25.337Z,37.52
2018-07-24T21:08:55.437Z,38.59
2018-07-24T21:11:25.559Z,38.81
2018-07-24T21:13:56.730Z,39.54
2018-07-24T21:16:31.222Z,40.09
2018-07-24T21:19:01.677Z,40.43
2018-07-24T21:21:32.821Z,41.22
2018-07-24T21:24:03.110Z,41.23
2018-07-24T21:26:33.493Z,41.27
2018-07-24T21:29:03.777Z,41.95
2018-07-24T21:31:33.920Z,42.38
2018-07-24T21:34:04.058Z,43.45
2018-07-24T21:36:34.162Z,44.75
2018-07-24T21:39:05.565Z,45.79
2018-07-24T21:41:35.711Z,46.38
2018-07-24T21:44:06.303Z,47.22
2018-07-24T21:46:36.457Z,48.26
2018-07-24T21:49:06.656Z,48.59
2018-07-24T21:51:36.726Z,49.32
2018-07-24T21:54:06.823Z,49.48
2018-07-24T21:56:36.923Z,49.56
2018-07-24T21:59:07.058Z,50.16
2018-07-24T22:01:37.180Z,50.99
2018-07-24T22:04:07.289Z,51.10
2018-07-24T22:06:37.402Z,51.27
2018-07-24T22:09:10.165Z,52.07
2018-07-24T22:11:40.512Z,52.39
2018-07-24T22:14:10.706Z,52.25
2018-07-24T22:16:41.769Z,52.88
2018-07-24T22:19:11.950Z,52.58
2018-07-24T22:21:42.173Z,52.91
2018-07-24T22:24:12.260Z,52.94
2018-07-24T22:26:42.366Z,53.46
2018-07-24T22:29:12.574Z,53.57
2018-07-24T22:31:42.753Z,54.19
2018-07-24T22:34:12.883Z,53.82
2018-07-24T22:36:43.052Z,54.82
2018-07-24T22:39:13.302Z,54.35
2018-07-24T22:41:43.508Z,54.64
2018-07-24T22:44:13.701Z,54.89
2018-07-24T22:46:43.860Z,55.43
2018-07-24T22:49:14.062Z,54.85
2018-07-24T22:51:44.110Z,55.23
2018-07-24T22:54:14.216Z,55.16
2018-07-24T22:56:44.458Z,55.46
2018-07-24T22:59:14.697Z,56.30
2018-07-24T23:01:44.836Z,55.86
2018-07-24T23:04:15.017Z,56.07
2018-07-24T23:06:45.185Z,56.44
2018-07-24T23:09:15.413Z,56.47
2018-07-24T23:11:45.538Z,56.55
2018-07-24T23:14:15.673Z,56.39
2018-07-24T23:16:45.793Z,56.50
2018-07-24T23:19:15.926Z,56.74
2018-07-24T23:21:46.053Z,56.76
2018-07-24T23:24:16.153Z,57.17
2018-07-24T23:26:46.256Z,57.11
2018-07-24T23:29:16.326Z,57.21
2018-07-24T23:31:46.695Z,57.60
2018-07-24T23:34:16.764Z,57.73
2018-07-24T23:36:46.883Z,58.45
2018-07-24T23:39:17.003Z,58.57
2018-07-24T23:41:47.081Z,58.01
2018-07-24T23:44:17.188Z,58.21
2018-07-24T23:46:47.342Z,57.98
2018-07-24T23:49:17.438Z,57.70
2018-07-24T23:51:47.669Z,57.74
2018-07-24T23:54:17.807Z,58.36
2018-07-24T23:56:47.982Z,58.72
2018-07-24T23:59:18.205Z,59.72
